Jones, Alabama
Current Conditions -  °F | °C
As of 4:15 PM on Thursday 23 Oct 2014 (Local Time) from KSEM Reporting Station
Clear Clear  
Wind Chill: 72°   Ceiling: Unl
Heat Index: 72°   Visibility: 10mi
Dew Point: 43°   Wind: 6mph
Humidity: 35%   Direction: 320°NW
Pressure: 30.05"   Gusts: NA
Location:  32.58°N, 86.9°W
Report Text: KSEM 232115Z AUTO 32005KT 10SM CLR 22/06 A3005 RMK AO2
Loading
Personal Weather Stations






























Interactive Weather Map
Tropical Storm Tracking
New forecast layout! Learn more

10-Day Weather Forecast

Advertisements
Track Severe Weather on mobile